Time;durP1;ratioP1;P1;durP2;ratioP2;P2;SDS_P1;SDS_P2;PMS_P1;PMS_P2;Temp;Humidity;BMP_temperature;BMP_pressure;BME280_temperature;BME280_humidity;BME280_pressure;Samples;Min_cycle;Max_cycle;Signal;HPM_P1;HPM_P2
2021/09/06 00:01:14;;;;;;;10.20;5.00;;;17.40;89.10;;;;;;5014166;28;20038;-79
2021/09/06 00:03:40;;;;;;;12.20;5.32;;;17.30;89.30;;;;;;5029471;28;20033;-79
2021/09/06 00:06:05;;;;;;;11.32;5.40;;;17.30;89.40;;;;;;5013243;28;20022;-79
2021/09/06 00:08:31;;;;;;;11.43;4.55;;;17.30;89.50;;;;;;5014290;28;20116;-79
2021/09/06 00:11:09;;;;;;;9.70;5.18;;;17.30;89.50;;;;;;5013164;28;20486;-79
2021/09/06 00:13:36;;;;;;;10.52;5.30;;;17.30;89.80;;;;;;5014115;28;20115;-78
2021/09/06 00:16:02;;;;;;;10.38;4.72;;;17.20;89.80;;;;;;5028525;28;20459;-79
2021/09/06 00:18:28;;;;;;;10.02;5.20;;;17.20;89.80;;;;;;5013848;28;20022;-79
2021/09/06 00:20:56;;;;;;;11.55;4.85;;;17.20;89.90;;;;;;5027957;28;20050;-80
2021/09/06 00:23:23;;;;;;;10.38;5.43;;;17.20;90.00;;;;;;5028854;28;20022;-79
2021/09/06 00:25:48;;;;;;;9.93;4.88;;;17.20;90.00;;;;;;5013464;28;20021;-79
2021/09/06 00:28:14;;;;;;;10.10;5.30;;;17.10;90.00;;;;;;5012371;28;20105;-79
2021/09/06 00:30:40;;;;;;;11.48;5.43;;;17.10;90.00;;;;;;5013568;28;20053;-79
2021/09/06 00:33:06;;;;;;;15.10;6.32;;;17.10;90.10;;;;;;5012839;28;20034;-78
2021/09/06 00:35:31;;;;;;;12.18;5.75;;;17.10;90.10;;;;;;5028670;28;20137;-79
2021/09/06 00:37:57;;;;;;;10.13;5.03;;;17.10;90.10;;;;;;5012732;28;20102;-80
2021/09/06 00:40:23;;;;;;;11.77;5.15;;;17.10;90.20;;;;;;5013437;28;20073;-79
2021/09/06 00:42:49;;;;;;;9.18;5.03;;;17.10;90.20;;;;;;5013100;28;20458;-79
2021/09/06 00:45:14;;;;;;;11.52;5.88;;;17.10;90.20;;;;;;5013064;28;20022;-79
2021/09/06 00:47:41;;;;;;;12.15;5.55;;;17.00;90.40;;;;;;5028507;28;20026;-78
2021/09/06 00:50:12;;;;;;;14.90;6.03;;;17.10;90.20;;;;;;5012652;28;20112;-79
2021/09/06 00:52:39;;;;;;;;;;;17.10;90.20;;;;;;5013752;28;20025;-78
2021/09/06 00:55:06;;;;;;;12.35;5.05;;;17.00;90.20;;;;;;5027473;28;19912;-78
2021/09/06 00:57:32;;;;;;;10.52;5.75;;;17.00;90.10;;;;;;5028313;28;20425;-79
2021/09/06 00:59:57;;;;;;;11.60;5.28;;;17.00;90.20;;;;;;5012449;28;20544;-78
2021/09/06 01:02:23;;;;;;;14.18;6.10;;;16.90;90.20;;;;;;5012761;28;20032;-79
2021/09/06 01:04:49;;;;;;;11.15;5.95;;;16.90;90.30;;;;;;5010823;28;20166;-79
2021/09/06 01:07:14;;;;;;;11.13;5.53;;;16.90;90.30;;;;;;5028241;28;20072;-79
2021/09/06 01:09:40;;;;;;;12.50;5.72;;;16.90;90.30;;;;;;5012934;28;20028;-79
2021/09/06 01:12:07;;;;;;;10.30;5.55;;;16.90;90.40;;;;;;5010954;28;20014;-79
2021/09/06 01:14:32;;;;;;;11.75;5.50;;;16.90;90.40;;;;;;5013368;28;20105;-78
2021/09/06 01:16:58;;;;;;;13.85;5.95;;;16.90;90.40;;;;;;5012246;28;20097;-78
2021/09/06 01:19:24;;;;;;;11.07;5.47;;;16.90;90.40;;;;;;5012334;28;20541;-78
2021/09/06 01:21:50;;;;;;;11.85;5.97;;;16.90;90.40;;;;;;5011820;28;20029;-79
2021/09/06 01:24:19;;;;;;;11.52;5.78;;;16.80;90.40;;;;;;5012402;28;20546;-78
2021/09/06 01:26:45;;;;;;;14.23;6.63;;;16.80;90.50;;;;;;5027971;28;20087;-78
2021/09/06 01:29:11;;;;;;;12.55;6.07;;;16.80;90.50;;;;;;5012077;28;20467;-78
2021/09/06 01:31:37;;;;;;;10.68;5.70;;;16.80;90.50;;;;;;5027697;28;20060;-78
2021/09/06 01:34:03;;;;;;;12.10;5.97;;;16.70;90.40;;;;;;5027114;28;20057;-79
2021/09/06 01:36:29;;;;;;;12.60;6.05;;;16.70;90.50;;;;;;5012253;28;20105;-78
2021/09/06 01:38:55;;;;;;;11.52;5.60;;;16.70;90.50;;;;;;5027135;28;20444;-79
2021/09/06 01:41:20;;;;;;;11.75;5.55;;;16.70;90.60;;;;;;5044070;28;20038;-78
2021/09/06 01:43:46;;;;;;;12.60;6.40;;;16.70;90.60;;;;;;5012174;28;20048;-79
2021/09/06 01:46:12;;;;;;;14.82;6.60;;;16.70;90.60;;;;;;5011874;28;20399;-79
2021/09/06 01:48:37;;;;;;;11.82;5.75;;;16.70;90.60;;;;;;5012345;28;20025;-79
2021/09/06 01:51:03;;;;;;;11.93;5.82;;;16.60;90.60;;;;;;5011791;28;20028;-79
2021/09/06 01:53:29;;;;;;;11.45;6.15;;;16.60;90.60;;;;;;5027485;28;20026;-79
2021/09/06 01:55:55;;;;;;;11.02;5.38;;;16.60;90.60;;;;;;5026849;28;20450;-80
2021/09/06 01:58:20;;;;;;;12.30;5.97;;;16.60;90.60;;;;;;5027527;28;20162;-79
2021/09/06 02:00:46;;;;;;;10.98;5.85;;;16.60;90.70;;;;;;5027350;28;20458;-79
2021/09/06 02:03:12;;;;;;;11.95;5.95;;;16.50;90.70;;;;;;5011974;28;20029;-79
2021/09/06 02:05:37;;;;;;;11.95;5.68;;;16.50;91.00;;;;;;5011919;28;20354;-79
2021/09/06 02:08:03;;;;;;;12.98;5.53;;;16.50;90.80;;;;;;5011347;28;20104;-79
2021/09/06 02:10:29;;;;;;;12.23;6.07;;;16.50;90.80;;;;;;5027594;28;20017;-79
2021/09/06 02:12:55;;;;;;;12.13;6.22;;;16.50;90.80;;;;;;5011965;28;20525;-78
2021/09/06 02:15:20;;;;;;;14.00;6.65;;;16.50;90.80;;;;;;5012311;28;20018;-79
2021/09/06 02:17:46;;;;;;;12.20;5.53;;;16.50;90.80;;;;;;5031390;28;20018;-78
2021/09/06 02:20:12;;;;;;;10.55;6.35;;;16.50;90.80;;;;;;5015339;28;20340;-79
2021/09/06 02:22:38;;;;;;;12.80;6.57;;;16.40;90.80;;;;;;5014650;28;20462;-79
2021/09/06 02:25:04;;;;;;;12.02;6.47;;;16.40;90.80;;;;;;5015439;28;20032;-79
2021/09/06 02:27:30;;;;;;;12.63;6.15;;;16.40;90.80;;;;;;5016139;28;20022;-79
2021/09/06 02:29:56;;;;;;;15.68;6.85;;;16.40;90.80;;;;;;5030424;28;20496;-80
2021/09/06 02:32:22;;;;;;;14.45;6.70;;;16.40;90.90;;;;;;5016043;28;20026;-79
2021/09/06 02:34:48;;;;;;;14.30;6.53;;;16.40;90.90;;;;;;5015491;28;20014;-79
2021/09/06 02:37:13;;;;;;;11.93;6.32;;;16.30;90.90;;;;;;5015218;28;20318;-79
2021/09/06 02:39:39;;;;;;;13.23;5.85;;;16.40;90.90;;;;;;5015846;28;20025;-79
2021/09/06 02:42:04;;;;;;;14.45;6.75;;;16.30;90.90;;;;;;5015137;28;20026;-79
2021/09/06 02:44:30;;;;;;;11.50;5.85;;;16.30;91.00;;;;;;5015694;28;20431;-79
2021/09/06 02:46:57;;;;;;;11.10;6.22;;;16.30;90.90;;;;;;5015073;28;20018;-80
2021/09/06 02:49:23;;;;;;;15.45;6.35;;;16.30;91.00;;;;;;5014273;28;20076;-79
2021/09/06 02:51:50;;;;;;;13.50;5.93;;;16.30;91.00;;;;;;5030585;28;20068;-79
2021/09/06 02:54:16;;;;;;;12.40;6.07;;;16.30;91.00;;;;;;5030051;28;20126;-79
2021/09/06 02:56:42;;;;;;;12.40;6.70;;;16.20;91.00;;;;;;5030615;28;20116;-79
2021/09/06 02:59:08;;;;;;;12.05;5.85;;;16.20;91.10;;;;;;5014834;28;20022;-79
2021/09/06 03:01:34;;;;;;;11.70;6.13;;;16.20;91.10;;;;;;5015209;28;20088;-79
2021/09/06 03:04:00;;;;;;;11.88;6.55;;;16.20;91.20;;;;;;5014471;28;20049;-79
2021/09/06 03:06:26;;;;;;;13.52;6.65;;;16.20;91.20;;;;;;5015028;28;20028;-79
2021/09/06 03:08:51;;;;;;;11.60;6.05;;;16.20;91.10;;;;;;5030513;28;20025;-79
2021/09/06 03:11:23;;;;;;;15.23;6.78;;;16.20;91.10;;;;;;5014342;28;20029;-79
2021/09/06 03:13:52;;;;;;;14.05;6.43;;;16.20;91.10;;;;;;5015154;28;20065;-79
2021/09/06 03:16:18;;;;;;;12.55;5.80;;;16.10;91.10;;;;;;5029593;28;20117;-79
2021/09/06 03:18:44;;;;;;;11.40;5.95;;;16.10;91.10;;;;;;5014667;28;20113;-79
2021/09/06 03:21:09;;;;;;;12.30;7.18;;;16.10;91.20;;;;;;5029588;28;20121;-79
2021/09/06 03:23:35;;;;;;;13.63;5.78;;;16.10;91.50;;;;;;5014972;28;20033;-79
2021/09/06 03:26:01;;;;;;;11.50;5.63;;;16.10;91.30;;;;;;5012907;28;20037;-79
2021/09/06 03:28:26;;;;;;;11.50;5.90;;;16.10;91.20;;;;;;5029670;28;20480;-79
2021/09/06 03:30:52;;;;;;;13.82;6.13;;;16.10;91.20;;;;;;5029906;28;20029;-79
2021/09/06 03:33:18;;;;;;;12.52;6.75;;;16.10;91.20;;;;;;5014184;28;20477;-79
2021/09/06 03:35:44;;;;;;;11.27;6.25;;;16.00;91.20;;;;;;5014806;28;20022;-78
2021/09/06 03:38:10;;;;;;;12.60;5.82;;;16.00;91.20;;;;;;5029219;28;20014;-79
2021/09/06 03:40:36;;;;;;;13.00;6.00;;;16.00;91.30;;;;;;5029789;28;20038;-79
2021/09/06 03:43:03;;;;;;;16.15;7.20;;;16.00;91.30;;;;;;5014018;28;20439;-79
2021/09/06 03:45:28;;;;;;;13.55;6.35;;;16.00;91.20;;;;;;5029955;28;20104;-79
2021/09/06 03:47:54;;;;;;;12.20;6.00;;;15.90;91.20;;;;;;5014523;28;20168;-79
2021/09/06 03:50:19;;;;;;;13.15;6.28;;;15.90;91.30;;;;;;5012466;28;20053;-79
2021/09/06 03:52:45;;;;;;;14.75;7.18;;;15.90;91.30;;;;;;5014426;28;20548;-79
2021/09/06 03:55:11;;;;;;;11.30;6.35;;;15.90;91.30;;;;;;5013737;28;20022;-79
2021/09/06 03:57:36;;;;;;;12.98;6.57;;;15.90;91.40;;;;;;5029434;28;20014;-79
2021/09/06 04:00:03;;;;;;;12.10;6.18;;;15.90;91.40;;;;;;5013602;28;20057;-80
2021/09/06 04:02:29;;;;;;;12.95;6.50;;;15.90;91.40;;;;;;5011501;28;20026;-80
2021/09/06 04:04:55;;;;;;;12.38;6.30;;;15.90;91.40;;;;;;5019419;28;20018;-79
2021/09/06 04:07:21;;;;;;;12.50;6.35;;;15.90;91.40;;;;;;5022413;28;20074;-80
2021/09/06 04:09:47;;;;;;;11.50;5.50;;;15.80;91.30;;;;;;5018863;28;20056;-80
2021/09/06 04:12:13;;;;;;;12.88;6.28;;;15.80;91.40;;;;;;5010428;28;20061;-80
2021/09/06 04:14:39;;;;;;;11.00;5.95;;;15.80;91.40;;;;;;5028564;28;20033;-80
2021/09/06 04:17:05;;;;;;;11.18;5.72;;;15.80;91.40;;;;;;5003375;28;20030;-80
2021/09/06 04:19:31;;;;;;;12.55;6.93;;;15.80;91.40;;;;;;5006798;28;20372;-81
2021/09/06 04:22:02;;;;;;;14.45;7.50;;;15.80;91.40;;;;;;5003312;28;20024;-81
2021/09/06 04:24:28;;;;;;;12.45;6.43;;;15.80;91.50;;;;;;5000100;28;20057;-80
2021/09/06 04:26:53;;;;;;;14.27;6.35;;;15.80;91.40;;;;;;5006389;28;20053;-80
2021/09/06 04:29:20;;;;;;;11.85;6.30;;;15.70;91.40;;;;;;5028225;28;20042;-81
2021/09/06 04:31:46;;;;;;;13.30;7.00;;;15.80;91.40;;;;;;5028860;28;20029;-80
2021/09/06 04:34:12;;;;;;;12.25;6.30;;;15.80;91.40;;;;;;5003776;28;20034;-80
2021/09/06 04:36:38;;;;;;;10.98;6.03;;;15.70;91.30;;;;;;4999184;28;20079;-80
2021/09/06 04:39:04;;;;;;;12.35;6.18;;;15.70;91.40;;;;;;4997983;28;20467;-82
2021/09/06 04:41:30;;;;;;;13.32;6.00;;;15.70;91.30;;;;;;5000686;28;20030;-80
2021/09/06 04:43:56;;;;;;;11.63;5.60;;;15.70;91.30;;;;;;4993184;28;20039;-80
2021/09/06 04:46:22;;;;;;;12.95;5.72;;;15.60;91.30;;;;;;5008649;28;20025;-80
2021/09/06 04:48:47;;;;;;;11.45;5.72;;;15.60;91.40;;;;;;5026351;28;20018;-80
2021/09/06 04:51:13;;;;;;;12.10;6.40;;;15.60;91.40;;;;;;5011278;28;20022;-80
2021/09/06 04:53:40;;;;;;;11.00;6.03;;;15.60;91.40;;;;;;4993599;28;20506;-80
2021/09/06 04:56:06;;;;;;;13.48;6.07;;;15.60;91.40;;;;;;5008081;28;20034;-80
2021/09/06 04:58:32;;;;;;;13.20;6.10;;;15.60;91.40;;;;;;5008632;28;20045;-74
2021/09/06 05:00:57;;;;;;;10.63;5.85;;;15.60;91.40;;;;;;4993172;28;20049;-73
2021/09/06 05:03:23;;;;;;;9.55;5.30;;;15.60;91.40;;;;;;4994436;28;20322;-73
2021/09/06 05:05:49;;;;;;;12.55;6.03;;;15.50;91.40;;;;;;5012892;28;20506;-74
2021/09/06 05:08:15;;;;;;;11.38;5.93;;;15.50;91.50;;;;;;5012381;28;20101;-74
2021/09/06 05:10:41;;;;;;;11.60;5.85;;;15.50;91.50;;;;;;5028048;28;20022;-73
2021/09/06 05:13:06;;;;;;;14.65;6.65;;;15.50;91.50;;;;;;5003469;28;20362;-74
2021/09/06 05:15:32;;;;;;;11.48;6.30;;;15.50;91.40;;;;;;5002239;28;20030;-73
2021/09/06 05:17:58;;;;;;;13.13;6.30;;;15.60;91.40;;;;;;5003138;28;20417;-74
2021/09/06 05:20:24;;;;;;;11.70;5.80;;;15.60;91.50;;;;;;4997781;28;20046;-73
2021/09/06 05:22:50;;;;;;;12.52;6.03;;;15.50;91.40;;;;;;5001831;28;20113;-73
2021/09/06 05:25:15;;;;;;;12.02;5.90;;;15.50;91.40;;;;;;5000559;28;20068;-73
2021/09/06 05:27:41;;;;;;;15.68;5.93;;;15.50;91.40;;;;;;5004343;28;20014;-74
2021/09/06 05:30:07;;;;;;;12.27;6.18;;;15.50;91.40;;;;;;5012090;28;20434;-73
2021/09/06 05:32:33;;;;;;;11.75;6.30;;;15.60;91.40;;;;;;5012215;28;20411;-73
2021/09/06 05:34:58;;;;;;;13.65;6.72;;;15.60;91.40;;;;;;5012474;28;20033;-73
2021/09/06 05:37:24;;;;;;;15.13;6.68;;;15.60;91.40;;;;;;5011693;28;20026;-74
2021/09/06 05:39:50;;;;;;;12.05;5.53;;;15.60;91.40;;;;;;5012142;28;20033;-73
2021/09/06 05:42:16;;;;;;;14.82;6.47;;;15.60;91.50;;;;;;5010423;28;20030;-73
2021/09/06 05:44:42;;;;;;;12.75;6.45;;;15.60;91.70;;;;;;5027537;28;20024;-73
2021/09/06 05:47:07;;;;;;;14.50;6.63;;;15.60;91.50;;;;;;5011946;28;20022;-73
2021/09/06 05:49:34;;;;;;;13.45;6.45;;;15.60;91.50;;;;;;5012046;28;20336;-74
2021/09/06 05:51:59;;;;;;;13.68;7.22;;;15.60;91.50;;;;;;5026724;28;20018;-74
2021/09/06 05:54:25;;;;;;;14.43;7.10;;;15.60;91.50;;;;;;5011754;28;20022;-73
2021/09/06 05:56:51;;;;;;;14.55;7.05;;;15.60;91.50;;;;;;5011890;28;20079;-74
2021/09/06 05:59:16;;;;;;;15.43;6.85;;;15.60;91.60;;;;;;5011815;28;20080;-74
2021/09/06 06:01:42;;;;;;;14.88;7.10;;;15.60;91.60;;;;;;5012172;28;20034;-72
2021/09/06 06:04:08;;;;;;;16.38;7.18;;;15.60;91.60;;;;;;5012303;28;20397;-72
2021/09/06 06:06:34;;;;;;;13.40;6.82;;;15.70;91.70;;;;;;5027171;28;20025;-72
2021/09/06 06:09:00;;;;;;;14.27;6.82;;;15.70;91.70;;;;;;5011886;28;20029;-73
2021/09/06 06:11:26;;;;;;;13.38;6.85;;;15.70;91.70;;;;;;5011763;28;20370;-72
2021/09/06 06:13:51;;;;;;;14.15;7.03;;;15.70;91.60;;;;;;5012151;28;20366;-72
2021/09/06 06:16:17;;;;;;;17.73;7.70;;;15.80;91.60;;;;;;5010127;28;20029;-72
2021/09/06 06:18:43;;;;;;;15.88;8.05;;;15.80;91.60;;;;;;5011641;28;20026;-73
2021/09/06 06:21:08;;;;;;;15.77;7.32;;;15.80;91.60;;;;;;5012022;28;20026;-72
2021/09/06 06:23:34;;;;;;;12.60;6.78;;;15.80;91.90;;;;;;5011664;28;20018;-72
2021/09/06 06:26:00;;;;;;;13.73;6.97;;;15.90;91.70;;;;;;5012002;28;20037;-72
2021/09/06 06:28:25;;;;;;;14.55;6.72;;;15.90;91.70;;;;;;5026443;28;20025;-72
2021/09/06 06:30:51;;;;;;;14.32;7.60;;;15.90;91.60;;;;;;5012275;28;20034;-72
2021/09/06 06:33:17;;;;;;;19.15;7.80;;;16.00;91.70;;;;;;5011458;28;20021;-73
2021/09/06 06:35:42;;;;;;;15.48;7.18;;;16.00;91.70;;;;;;5011789;28;20311;-73
2021/09/06 06:38:08;;;;;;;14.00;6.78;;;16.00;91.60;;;;;;5011880;28;20473;-72
2021/09/06 06:40:35;;;;;;;15.35;7.28;;;16.10;91.70;;;;;;5026369;28;20026;-73
2021/09/06 06:43:00;;;;;;;16.33;7.70;;;16.10;91.70;;;;;;5027045;28;20018;-73
2021/09/06 06:45:26;;;;;;;16.13;6.93;;;16.10;91.70;;;;;;5011234;28;20335;-72
2021/09/06 06:47:52;;;;;;;16.70;7.53;;;16.20;91.70;;;;;;5026529;28;20073;-73
2021/09/06 06:50:17;;;;;;;18.58;8.00;;;16.20;91.70;;;;;;5011167;28;20068;-73
2021/09/06 06:52:43;;;;;;;15.25;7.32;;;16.20;92.00;;;;;;5011795;28;20101;-73
2021/09/06 06:55:10;;;;;;;15.57;7.63;;;16.30;91.70;;;;;;5011743;28;20101;-73
2021/09/06 06:57:36;;;;;;;18.88;8.25;;;16.30;91.70;;;;;;5026125;28;20460;-73
2021/09/06 07:00:03;;;;;;;17.17;7.85;;;16.30;91.70;;;;;;5011740;28;20061;-74
2021/09/06 07:02:29;;;;;;;17.02;8.25;;;16.40;91.80;;;;;;5012815;28;20018;-73
2021/09/06 07:04:55;;;;;;;16.85;7.63;;;16.40;91.70;;;;;;5015194;28;20528;-73
2021/09/06 07:07:21;;;;;;;15.88;7.63;;;16.40;91.80;;;;;;5014519;28;20022;-73
2021/09/06 07:09:46;;;;;;;16.38;8.02;;;16.50;91.80;;;;;;5015315;28;20033;-73
2021/09/06 07:12:12;;;;;;;15.82;7.93;;;16.50;91.80;;;;;;5015103;28;20077;-71
2021/09/06 07:14:38;;;;;;;14.80;7.00;;;16.60;91.80;;;;;;5014514;28;20014;-72
2021/09/06 07:17:04;;;;;;;17.75;7.95;;;16.60;91.80;;;;;;5015081;28;20026;-72
2021/09/06 07:19:29;;;;;;;14.75;7.93;;;16.70;91.80;;;;;;5014268;28;20397;-73
2021/09/06 07:21:55;;;;;;;17.58;7.97;;;16.70;91.80;;;;;;5014920;28;20065;-73
2021/09/06 07:24:21;;;;;;;15.98;7.55;;;16.70;91.80;;;;;;5014262;28;20117;-73
2021/09/06 07:26:47;;;;;;;12.80;7.28;;;16.80;91.80;;;;;;5014798;28;20029;-73
2021/09/06 07:29:12;;;;;;;17.52;7.90;;;16.80;91.80;;;;;;5014813;28;20022;-73
2021/09/06 07:31:38;;;;;;;18.35;8.27;;;16.80;91.80;;;;;;5013901;28;20083;-73
2021/09/06 07:34:04;;;;;;;17.67;7.55;;;16.80;91.70;;;;;;5014709;28;20014;-72
2021/09/06 07:36:32;;;;;;;15.55;7.68;;;16.90;91.70;;;;;;5013860;28;20158;-72
2021/09/06 07:38:59;;;;;;;16.48;7.88;;;17.00;91.80;;;;;;5014669;28;20061;-72
2021/09/06 07:41:26;;;;;;;17.45;8.43;;;17.00;91.70;;;;;;5013880;28;20021;-72
2021/09/06 07:43:52;;;;;;;16.60;7.68;;;17.10;91.70;;;;;;5029754;28;20412;-72
2021/09/06 07:46:17;;;;;;;14.23;7.40;;;17.10;91.70;;;;;;5013658;28;20025;-72
2021/09/06 07:48:43;;;;;;;13.82;7.28;;;17.20;91.70;;;;;;5014565;28;20477;-74
2021/09/06 07:51:09;;;;;;;18.45;8.60;;;17.20;91.70;;;;;;5014362;28;20425;-74
2021/09/06 07:53:34;;;;;;;16.60;7.38;;;17.30;91.70;;;;;;5013793;28;20018;-74
2021/09/06 07:56:00;;;;;;;15.40;7.43;;;17.30;91.70;;;;;;5014273;28;20401;-74
2021/09/06 07:58:26;;;;;;;13.23;6.15;;;17.40;91.70;;;;;;5013592;28;20454;-74
2021/09/06 08:00:52;;;;;;;14.05;6.55;;;17.40;91.60;;;;;;5014087;28;20025;-74
2021/09/06 08:03:17;;;;;;;14.75;7.03;;;17.50;91.60;;;;;;5013477;28;20133;-74
2021/09/06 08:05:43;;;;;;;14.18;6.10;;;17.50;91.60;;;;;;5014124;28;20434;-73
2021/09/06 08:08:09;;;;;;;15.45;7.38;;;17.50;91.60;;;;;;5014409;28;20026;-73
2021/09/06 08:10:34;;;;;;;18.80;8.10;;;17.60;91.60;;;;;;5013259;28;20075;-73
2021/09/06 08:13:00;;;;;;;13.90;7.35;;;17.60;91.60;;;;;;5013005;28;20458;-73
2021/09/06 08:15:28;;;;;;;15.85;7.68;;;17.70;91.60;;;;;;5013130;28;20461;-73
2021/09/06 08:17:54;;;;;;;16.23;7.82;;;17.70;91.80;;;;;;5013756;28;20022;-73
2021/09/06 08:20:20;;;;;;;15.90;7.53;;;17.70;91.50;;;;;;5028110;28;20049;-74
2021/09/06 08:22:46;;;;;;;14.07;6.82;;;17.80;91.50;;;;;;5013809;28;20018;-73
2021/09/06 08:25:13;;;;;;;17.05;8.35;;;17.80;91.50;;;;;;5013495;28;20018;-74
2021/09/06 08:27:40;;;;;;;15.10;7.25;;;17.90;91.50;;;;;;5013000;28;20168;-74
2021/09/06 08:30:07;;;;;;;14.52;7.20;;;17.90;91.40;;;;;;5013542;28;20144;-73
2021/09/06 08:32:33;;;;;;;15.55;7.57;;;18.00;91.40;;;;;;5012898;28;20028;-73
2021/09/06 08:34:59;;;;;;;15.75;7.57;;;18.00;91.40;;;;;;5013471;28;20413;-73
2021/09/06 08:37:25;;;;;;;15.48;7.40;;;18.10;91.60;;;;;;5012863;28;20022;-74
2021/09/06 08:39:51;;;;;;;15.82;7.32;;;18.10;91.30;;;;;;5013481;28;20093;-74
2021/09/06 08:42:18;;;;;;;16.75;8.25;;;18.20;91.20;;;;;;5013252;28;20022;-73
2021/09/06 08:44:44;;;;;;;13.23;7.28;;;18.20;91.20;;;;;;5012640;28;20018;-73
2021/09/06 08:47:11;;;;;;;15.50;7.97;;;18.30;91.10;;;;;;5012990;28;20100;-73
2021/09/06 08:49:37;;;;;;;14.32;6.95;;;18.40;91.10;;;;;;5012543;28;20508;-73
2021/09/06 08:52:03;;;;;;;13.40;7.60;;;18.40;91.00;;;;;;5013116;28;20017;-73
2021/09/06 08:54:29;;;;;;;14.93;7.70;;;18.50;91.00;;;;;;5027719;28;20466;-74
2021/09/06 08:56:54;;;;;;;13.70;6.30;;;18.50;91.00;;;;;;5012783;28;20411;-74
2021/09/06 08:59:21;;;;;;;13.95;7.40;;;18.60;91.00;;;;;;5013068;28;20022;-73
2021/09/06 09:01:48;;;;;;;17.27;7.00;;;18.60;90.90;;;;;;5013038;28;20030;-74
2021/09/06 09:04:17;;;;;;;16.67;8.20;;;18.70;90.80;;;;;;5013016;28;20045;-74
2021/09/06 09:06:43;;;;;;;14.07;7.72;;;18.80;90.80;;;;;;5012391;28;20022;-73
2021/09/06 09:09:08;;;;;;;16.33;8.10;;;18.80;90.70;;;;;;5012595;28;20041;-73
2021/09/06 09:11:35;;;;;;;16.33;8.10;;;18.90;90.70;;;;;;5012104;28;20350;-73
2021/09/06 09:14:11;;;;;;;16.45;7.65;;;18.90;90.70;;;;;;5012357;28;20022;-73
2021/09/06 09:16:37;;;;;;;14.88;7.13;;;19.00;90.60;;;;;;5012074;28;20028;-74
2021/09/06 09:19:05;;;;;;;13.50;7.30;;;19.00;90.60;;;;;;5012668;28;20042;-74
2021/09/06 09:21:31;;;;;;;13.27;7.10;;;19.00;90.50;;;;;;5026903;28;20053;-74
2021/09/06 09:24:01;;;;;;;15.48;7.32;;;19.00;90.50;;;;;;5012448;28;20446;-74
2021/09/06 09:26:30;;;;;;;18.02;7.10;;;19.10;90.50;;;;;;5012267;28;20030;-74
2021/09/06 09:28:56;;;;;;;13.65;7.20;;;19.10;90.40;;;;;;5012528;28;20022;-74
2021/09/06 09:31:22;;;;;;;15.57;6.63;;;19.20;90.40;;;;;;5012223;28;20095;-73
2021/09/06 09:33:53;;;;;;;14.23;6.97;;;19.20;90.30;;;;;;5012461;28;20076;-74
2021/09/06 09:36:34;;;;;;;16.13;7.05;;;19.20;90.30;;;;;;5012629;28;20446;-74
2021/09/06 09:39:08;;;;;;;15.20;7.40;;;19.20;90.30;;;;;;5027687;28;20021;-73
2021/09/06 09:41:34;;;;;;;17.00;8.18;;;19.30;90.20;;;;;;5026906;28;20430;-73
2021/09/06 09:44:16;;;;;;;13.40;7.43;;;19.40;90.20;;;;;;5012155;28;20014;-74
2021/09/06 09:46:56;;;;;;;13.93;6.80;;;19.40;90.10;;;;;;5026933;28;20022;-73
2021/09/06 09:49:22;;;;;;;10.63;5.55;;;19.50;90.00;;;;;;5012466;28;20024;-73
2021/09/06 09:51:48;;;;;;;12.82;6.72;;;19.50;90.00;;;;;;5011906;28;20026;-74
2021/09/06 09:54:14;;;;;;;13.63;7.15;;;19.50;90.00;;;;;;5012335;28;20105;-74
2021/09/06 09:56:43;;;;;;;15.05;6.63;;;19.50;90.00;;;;;;5011680;28;20046;-73
2021/09/06 09:59:09;;;;;;;15.85;7.82;;;19.50;90.00;;;;;;5012227;28;20025;-73
2021/09/06 10:01:51;;;;;;;15.55;6.95;;;19.60;90.00;;;;;;5011592;28;20030;-73
2021/09/06 10:04:22;;;;;;;17.27;8.52;;;19.60;89.90;;;;;;5012335;28;20026;-73
2021/09/06 10:06:48;;;;;;;16.88;6.60;;;19.60;89.70;;;;;;5011600;28;20450;-73
2021/09/06 10:09:14;;;;;;;16.10;7.93;;;19.70;89.50;;;;;;5011679;28;20029;-73
2021/09/06 10:11:42;;;;;;;13.15;6.60;;;19.80;89.40;;;;;;5011607;28;20018;-74
2021/09/06 10:14:26;;;;;;;13.30;6.78;;;19.80;89.30;;;;;;5012076;28;20028;-73
2021/09/06 10:17:02;;;;;;;13.48;7.45;;;19.80;89.20;;;;;;5011849;28;20018;-74
2021/09/06 10:19:39;;;;;;;13.65;6.43;;;19.80;89.10;;;;;;5011338;28;20042;-74
2021/09/06 10:22:05;;;;;;;11.88;6.00;;;19.90;89.20;;;;;;5012104;28;20026;-74
2021/09/06 10:24:31;;;;;;;9.90;5.60;;;19.90;88.70;;;;;;5011452;28;20442;-73
2021/09/06 10:27:05;;;;;;;12.02;5.93;;;20.00;88.20;;;;;;5011815;28;20030;-74
2021/09/06 10:29:31;;;;;;;10.77;5.30;;;20.10;87.50;;;;;;5011278;28;20021;-72
2021/09/06 10:32:05;;;;;;;11.00;5.97;;;20.20;87.10;;;;;;5011574;28;20026;-73
2021/09/06 10:34:30;;;;;;;11.57;6.18;;;20.40;86.50;;;;;;5011307;28;20478;-73
2021/09/06 10:37:05;;;;;;;8.90;4.57;;;20.50;86.30;;;;;;5013193;28;20030;-73
2021/09/06 10:39:43;;;;;;;10.35;5.20;;;20.60;85.60;;;;;;5015270;28;20018;-72
2021/09/06 10:42:10;;;;;;;7.78;4.07;;;20.70;85.00;;;;;;5015590;28;20057;-73
2021/09/06 10:44:39;;;;;;;7.65;4.65;;;20.70;84.70;;;;;;5030204;28;20425;-72
2021/09/06 10:47:11;;;;;;;7.82;4.57;;;20.80;84.00;;;;;;5015749;28;20096;-73
2021/09/06 10:49:44;;;;;;;7.00;3.83;;;20.90;83.50;;;;;;5015015;28;20018;-73
2021/09/06 10:52:11;;;;;;;6.70;2.92;;;20.90;82.80;;;;;;5030912;28;20014;-73
2021/09/06 10:54:39;;;;;;;6.13;2.65;;;21.00;82.50;;;;;;5014630;28;20105;-73
2021/09/06 10:57:08;;;;;;;7.63;3.95;;;21.10;82.20;;;;;;5015389;28;20109;-73
2021/09/06 10:59:35;;;;;;;9.88;4.53;;;21.10;81.60;;;;;;5014799;28;20017;-73
2021/09/06 11:02:00;;;;;;;7.85;3.80;;;21.20;81.30;;;;;;5015185;28;20065;-73
2021/09/06 11:04:27;;;;;;;7.25;4.28;;;21.20;80.80;;;;;;5030583;28;20072;-73
2021/09/06 11:07:07;;;;;;;8.18;3.83;;;21.20;80.40;;;;;;5014692;28;20025;-73
2021/09/06 11:09:35;;;;;;;7.15;3.65;;;21.30;79.80;;;;;;5014617;28;20028;-73
2021/09/06 11:12:03;;;;;;;6.53;3.50;;;21.30;79.60;;;;;;5015170;28;20492;-73
2021/09/06 11:14:36;;;;;;;8.15;4.15;;;21.40;79.40;;;;;;5015194;28;20132;-73
2021/09/06 11:17:02;;;;;;;6.30;2.85;;;21.40;79.20;;;;;;5015244;28;20093;-73
2021/09/06 11:19:29;;;;;;;6.35;3.60;;;21.50;79.30;;;;;;5015258;28;20037;-75
2021/09/06 11:21:59;;;;;;;8.43;4.30;;;21.50;79.20;;;;;;5014720;28;20443;-73
2021/09/06 11:24:28;;;;;;;9.32;4.57;;;21.50;79.30;;;;;;5015270;28;20030;-74
2021/09/06 11:26:54;;;;;;;7.88;3.75;;;21.50;79.10;;;;;;5014531;28;20017;-74
2021/09/06 11:29:19;;;;;;;6.93;3.80;;;21.60;78.80;;;;;;5014371;28;20096;-74
2021/09/06 11:31:49;;;;;;;7.57;3.83;;;21.60;78.40;;;;;;5015157;28;20030;-74
2021/09/06 11:34:15;;;;;;;8.30;4.13;;;21.70;77.90;;;;;;5015478;28;20071;-74
2021/09/06 11:36:41;;;;;;;8.02;3.63;;;21.80;77.50;;;;;;5029979;28;20022;-74
2021/09/06 11:39:08;;;;;;;7.20;3.95;;;21.90;76.90;;;;;;5015365;28;20104;-74
2021/09/06 11:41:40;;;;;;;8.23;4.70;;;22.00;76.60;;;;;;5015080;28;20026;-74
2021/09/06 11:44:07;;;;;;;7.97;4.10;;;22.10;76.80;;;;;;5016027;28;20022;-74
2021/09/06 11:46:34;;;;;;;9.80;4.45;;;22.10;76.80;;;;;;5014036;28;20018;-73
2021/09/06 11:49:01;;;;;;;9.90;4.88;;;22.30;76.20;;;;;;5014470;28;20100;-73
2021/09/06 11:51:27;;;;;;;8.88;4.68;;;22.40;75.70;;;;;;5029676;28;20030;-73
2021/09/06 11:53:58;;;;;;;7.85;3.78;;;22.60;75.50;;;;;;5013763;28;20726;-73
2021/09/06 11:56:25;;;;;;;11.38;4.72;;;22.70;75.60;;;;;;5014273;28;20053;-73
2021/09/06 11:58:50;;;;;;;5.90;3.30;;;22.90;75.30;;;;;;5013371;28;20072;-74
2021/09/06 12:01:16;;;;;;;11.50;5.88;;;23.00;75.20;;;;;;5014227;28;20462;-73
2021/09/06 12:03:44;;;;;;;10.32;5.10;;;23.10;74.20;;;;;;5028725;28;20053;-73
2021/09/06 12:06:13;;;;;;;9.55;4.72;;;23.20;74.10;;;;;;5014233;28;20349;-74
2021/09/06 12:08:56;;;;;;;12.48;5.13;;;23.30;73.90;;;;;;5013529;28;20049;-73
2021/09/06 12:11:22;;;;;;;9.50;4.70;;;23.40;73.50;;;;;;5014162;28;20510;-73
2021/09/06 12:13:57;;;;;;;10.75;4.30;;;23.40;73.40;;;;;;5013357;28;20054;-73
2021/09/06 12:16:31;;;;;;;7.50;3.95;;;23.50;72.80;;;;;;5013966;28;20014;-74
2021/09/06 12:18:58;;;;;;;6.97;4.32;;;23.50;72.70;;;;;;5012986;28;20080;-75
2021/09/06 12:21:25;;;;;;;7.97;4.05;;;23.60;72.70;;;;;;5013648;28;20034;-74
2021/09/06 12:24:01;;;;;;;8.23;4.82;;;23.70;72.70;;;;;;5013056;28;20032;-72
2021/09/06 12:26:43;;;;;;;8.75;3.72;;;23.70;72.40;;;;;;5014038;28;20459;-74
2021/09/06 12:29:10;;;;;;;9.35;4.93;;;23.80;72.40;;;;;;5013712;28;20021;-75
2021/09/06 12:31:43;;;;;;;10.10;4.78;;;23.80;72.30;;;;;;5013367;28;20109;-74
2021/09/06 12:34:11;;;;;;;10.00;4.78;;;23.80;71.80;;;;;;5013611;28;20013;-75
2021/09/06 12:36:37;;;;;;;5.53;3.28;;;23.80;72.30;;;;;;5012935;28;20025;-73